Time;durP1;ratioP1;P1;durP2;ratioP2;P2;SDS_P1;SDS_P2;PMS_P1;PMS_P2;Temp;Humidity;BMP_temperature;BMP_pressure;BME280_temperature;BME280_humidity;BME280_pressure;Samples;Min_cycle;Max_cycle;Signal;HPM_P1;HPM_P2
2022/02/16 00:01:08;;;;;;;;;;;7.40;99.90;;;;;;5057057;28;20007;-78
2022/02/16 00:03:34;;;;;;;;;;;7.40;99.90;;;;;;5074268;28;19969;-78
2022/02/16 00:05:59;;;;;;;;;;;7.50;99.90;;;;;;5075494;28;19916;-79
2022/02/16 00:08:25;;;;;;;;;;;7.50;99.90;;;;;;5057675;28;20042;-78
2022/02/16 00:10:51;;;;;;;;;;;7.60;99.90;;;;;;5053119;28;19935;-80
2022/02/16 00:13:17;;;;;;;;;;;7.60;99.90;;;;;;5057308;28;19923;-78
2022/02/16 00:15:43;;;;;;;;;;;7.70;99.90;;;;;;5074942;28;19924;-78
2022/02/16 00:18:08;;;;;;;;;;;7.70;99.90;;;;;;5074785;28;19916;-78
2022/02/16 00:20:34;;;;;;;;;;;7.80;99.90;;;;;;5075412;28;19912;-78
2022/02/16 00:23:00;;;;;;;;;;;7.70;99.90;;;;;;5056884;28;19916;-78
2022/02/16 00:25:25;;;;;;;;;;;7.80;99.90;;;;;;5074745;28;20215;-77
2022/02/16 00:27:51;;;;;;;;;;;7.70;99.90;;;;;;5074739;28;20180;-78
2022/02/16 00:30:16;;;;;;;;;;;7.80;99.90;;;;;;5075001;28;19912;-78
2022/02/16 00:32:42;;;;;;;;;;;7.70;99.90;;;;;;5056964;28;19950;-77
2022/02/16 00:35:07;;;;;;;;;;;7.80;99.90;;;;;;5062021;28;19916;-78
2022/02/16 00:37:33;;;;;;;;;;;7.70;99.90;;;;;;5062268;28;19916;-78
2022/02/16 00:39:58;;;;;;;;;;;7.70;99.90;;;;;;5056960;28;20205;-77
2022/02/16 00:50:10;;;;;;;;;;;7.70;99.90;;;;;;5219950;22;19938;-78
2022/02/16 00:52:36;;;;;;;;;;;7.70;99.90;;;;;;5117816;28;20207;-77
2022/02/16 00:55:02;;;;;;;;;;;7.70;99.90;;;;;;5136458;28;19938;-77
2022/02/16 00:57:27;;;;;;;;;;;7.70;99.90;;;;;;5135798;28;19915;-78
2022/02/16 00:59:53;;;;;;;;;;;7.70;99.90;;;;;;5116239;28;19919;-77
2022/02/16 01:02:18;;;;;;;;;;;7.70;99.90;;;;;;5134072;28;19915;-78
2022/02/16 01:04:44;;;;;;;;;;;7.70;99.90;;;;;;5135760;28;20363;-80
2022/02/16 01:07:09;;;;;;;;;;;7.70;99.90;;;;;;5117167;28;20222;-77
2022/02/16 01:09:35;;;;;;;;;;;7.70;99.90;;;;;;5117139;28;19963;-77
2022/02/16 01:12:00;;;;;;;;;;;7.70;99.90;;;;;;5135586;28;19912;-77
2022/02/16 01:14:26;;;;;;;;;;;7.70;99.90;;;;;;5134670;28;20014;-79
2022/02/16 01:16:52;;;;;;;;;;;7.70;99.90;;;;;;5135524;28;19930;-78
2022/02/16 01:19:17;;;;;;;;;;;7.70;99.90;;;;;;5116877;28;19920;-78
2022/02/16 01:21:43;;;;;;;;;;;7.70;99.90;;;;;;5117256;28;19918;-77
2022/02/16 01:24:11;;;;;;;;;;;7.70;99.90;;;;;;5137109;27;21307;-78
2022/02/16 01:26:37;;;;;;;;;;;7.70;99.90;;;;;;5121198;27;19915;-78
2022/02/16 01:29:02;;;;;;;;;;;7.70;99.90;;;;;;5139224;27;20188;-77
2022/02/16 01:31:28;;;;;;;;;;;7.70;99.90;;;;;;5139449;27;19919;-78
2022/02/16 01:33:53;;;;;;;;;;;7.70;99.90;;;;;;5139252;27;20014;-79
2022/02/16 01:36:19;;;;;;;;;;;7.70;99.90;;;;;;5139382;27;19911;-78
2022/02/16 01:38:45;;;;;;;;;;;7.70;99.90;;;;;;5120690;27;19920;-77
2022/02/16 01:41:15;;;;;;;;;;;7.70;99.90;;;;;;5120868;27;20349;-82
2022/02/16 01:43:48;;;;;;;;;;;7.70;99.90;;;;;;5120784;27;19912;-79
2022/02/16 01:46:14;;;;;;;;;;;7.70;99.90;;;;;;5120725;27;19911;-77
2022/02/16 01:48:40;;;;;;;;;;;7.70;99.90;;;;;;5104288;28;20340;-80
2022/02/16 01:51:06;;;;;;;;;;;7.60;99.90;;;;;;5092139;28;19918;-79
2022/02/16 01:53:32;;;;;;;;;;;7.60;99.90;;;;;;5092580;28;20044;-77
2022/02/16 01:55:58;;;;;;;;;;;7.60;99.90;;;;;;5077503;28;19948;-77
2022/02/16 01:58:24;;;;;;;;;;;7.60;99.90;;;;;;5087759;28;19920;-77
2022/02/16 02:00:49;;;;;;;;;;;7.60;99.90;;;;;;5095703;28;20219;-78
2022/02/16 02:03:15;;;;;;;;;;;7.60;99.90;;;;;;5096358;28;20003;-78
2022/02/16 02:05:40;;;;;;;;;;;7.60;99.90;;;;;;5097907;28;20014;-78
2022/02/16 02:08:06;;;;;;;;;;;7.60;99.90;;;;;;5096325;28;19919;-78
2022/02/16 02:10:31;;;;;;;;;;;7.60;99.90;;;;;;5096568;28;19958;-78
2022/02/16 02:12:57;;;;;;;;;;;7.60;99.90;;;;;;5097593;28;19919;-77
2022/02/16 02:15:24;;;;;;;;;;;7.60;99.90;;;;;;5097693;28;19934;-80
2022/02/16 02:17:50;;;;;;;;;;;7.60;99.90;;;;;;5097767;28;19916;-77
2022/02/16 02:20:19;;;;;;;;;;;7.60;99.90;;;;;;5097635;28;19916;-77
2022/02/16 02:22:45;;;;;;;;;;;7.60;99.90;;;;;;5096966;28;20314;-78
2022/02/16 02:25:10;;;;;;;;;;;7.60;99.90;;;;;;5097844;28;19954;-78
2022/02/16 02:27:36;;;;;;;;;;;7.60;99.90;;;;;;5096108;28;19912;-77
2022/02/16 02:30:01;;;;;;;;;;;7.60;99.90;;;;;;5095466;28;19996;-79
2022/02/16 02:32:27;;;;;;;;;;;7.70;99.90;;;;;;5096079;28;19923;-78
2022/02/16 02:34:53;;;;;;;;;;;7.60;99.90;;;;;;5090658;28;20333;-79
2022/02/16 02:37:18;;;;;;;;;;;7.70;99.90;;;;;;5097700;28;19916;-78
2022/02/16 02:39:44;;;;;;;;;;;7.60;99.90;;;;;;5096606;28;19939;-79
2022/02/16 02:42:09;;;;;;;;;;;7.70;99.90;;;;;;5097099;28;20337;-78
2022/02/16 02:44:35;;;;;;;;;;;7.70;99.90;;;;;;5096997;28;20218;-79
2022/02/16 02:47:01;;;;;;;;;;;7.80;99.90;;;;;;5096996;28;19912;-77
2022/02/16 02:49:27;;;;;;;;;;;7.80;99.90;;;;;;5095303;28;19920;-78
2022/02/16 02:51:52;;;;;;;;;;;7.80;99.90;;;;;;5097330;28;19916;-79
2022/02/16 02:54:18;;;;;;;;;;;7.80;99.90;;;;;;5097288;28;19916;-77
2022/02/16 02:56:44;;;;;;;;;;;7.80;99.90;;;;;;5096911;28;19912;-78
2022/02/16 02:59:09;;;;;;;;;;;7.80;99.90;;;;;;5094837;28;19960;-78
2022/02/16 03:01:35;;;;;;;;;;;7.80;99.90;;;;;;5095673;28;20300;-78
2022/02/16 03:04:00;;;;;;;;;;;7.80;99.90;;;;;;5095260;28;19943;-77
2022/02/16 03:06:26;;;;;;;;;;;7.80;99.90;;;;;;5096374;28;19916;-79
2022/02/16 03:08:51;;;;;;;;;;;7.90;99.90;;;;;;5093894;28;19927;-77
2022/02/16 03:11:19;;;;;;;;;;;7.90;99.90;;;;;;5095171;28;19912;-77
2022/02/16 03:13:46;;;;;;;;;;;7.90;99.90;;;;;;5096904;28;19908;-79
2022/02/16 03:16:12;;;;;;;;;;;7.90;99.90;;;;;;5088203;28;19912;-78
2022/02/16 03:18:37;;;;;;;;;;;7.90;99.90;;;;;;5081405;28;20266;-77
2022/02/16 03:21:03;;;;;;;;;;;7.90;99.90;;;;;;5095145;28;19912;-78
2022/02/16 03:23:28;;;;;;;;;;;7.90;99.90;;;;;;5095398;28;19912;-77
2022/02/16 03:25:54;;;;;;;;;;;8.00;99.90;;;;;;5096604;28;19978;-77
2022/02/16 03:28:19;;;;;;;;;;;8.00;99.90;;;;;;5089699;28;19909;-78
2022/02/16 03:30:45;;;;;;;;;;;8.00;99.90;;;;;;5095786;28;19916;-78
2022/02/16 03:33:10;;;;;;;;;;;8.00;99.90;;;;;;5096509;28;19934;-77
2022/02/16 03:35:36;;;;;;;;;;;8.00;99.90;;;;;;5096238;28;19912;-79
2022/02/16 03:38:02;;;;;;;;;;;8.00;99.90;;;;;;5094858;28;19938;-78
2022/02/16 03:40:29;;;;;;;;;;;8.00;99.90;;;;;;5095173;28;19969;-78
2022/02/16 03:42:54;;;;;;;;;;;8.00;99.90;;;;;;5094472;28;19916;-78
2022/02/16 03:45:20;;;;;;;;;;;8.00;99.90;;;;;;5095302;28;19912;-79
2022/02/16 03:47:46;;;;;;;;;;;8.00;99.90;;;;;;5085680;28;19919;-79
2022/02/16 03:50:12;;;;;;;;;;;8.00;99.90;;;;;;5113156;28;19955;-77
2022/02/16 03:52:38;;;;;;;;;;;8.10;99.90;;;;;;5115098;28;20373;-79
2022/02/16 03:55:03;;;;;;;;;;;8.10;99.90;;;;;;5115387;28;19994;-78
2022/02/16 03:57:29;;;;;;;;;;;8.10;99.90;;;;;;5101289;22;20378;-79
2022/02/16 03:59:54;;;;;;;;;;;8.10;99.90;;;;;;5075806;28;20262;-78
2022/02/16 04:02:20;;;;;;;;;;;8.10;99.90;;;;;;5075654;28;19962;-81
2022/02/16 04:04:45;;;;;;;;;;;8.10;99.90;;;;;;5075779;28;19916;-78
2022/02/16 04:07:11;;;;;;;;;;;8.10;99.90;;;;;;5074421;28;19931;-79
2022/02/16 04:09:37;;;;;;;;;;;8.10;99.90;;;;;;5075260;28;19917;-78
2022/02/16 04:12:02;;;;;;;;;;;8.10;99.90;;;;;;5073722;28;20219;-80
2022/02/16 04:14:28;;;;;;;;;;;8.10;99.90;;;;;;5072946;28;19920;-77
2022/02/16 04:16:53;;;;;;;;;;;8.10;99.90;;;;;;5074113;28;19909;-79
2022/02/16 04:19:19;;;;;;;;;;;8.10;99.90;;;;;;5072152;28;19932;-77
2022/02/16 04:21:45;;;;;;;;;;;8.10;99.90;;;;;;5071472;28;19920;-79
2022/02/16 04:24:10;;;;;;;;;;;8.10;99.90;;;;;;5072766;28;19970;-78
2022/02/16 04:26:36;;;;;;;;;;;8.10;99.90;;;;;;5072709;28;20019;-79
2022/02/16 04:29:01;;;;;;;;;;;8.20;99.90;;;;;;5067838;28;20332;-78
2022/02/16 04:31:27;;;;;;;;;;;8.10;99.90;;;;;;5069355;28;19966;-78
2022/02/16 04:33:52;;;;;;;;;;;8.10;99.90;;;;;;5086926;28;19917;-78
2022/02/16 04:36:25;;;;;;;;;;;8.10;99.90;;;;;;5072734;28;19916;-77
2022/02/16 04:38:54;;;;;;;;;;;8.10;99.90;;;;;;5072855;28;19987;-79
2022/02/16 04:41:20;;;;;;;;;;;8.10;99.90;;;;;;5071972;28;19919;-78
2022/02/16 04:43:46;;;;;;;;;;;8.10;99.90;;;;;;5072417;28;19916;-77
2022/02/16 04:46:11;;;;;;;;;;;8.10;99.90;;;;;;5069949;28;20585;-78
2022/02/16 04:48:38;;;;;;;;;;;8.10;99.90;;;;;;5072837;28;20223;-78
2022/02/16 04:51:04;;;;;;;;;;;8.20;99.90;;;;;;5073762;28;19952;-78
2022/02/16 04:53:32;;;;;;;;;;;8.20;99.90;;;;;;5073249;28;19955;-79
2022/02/16 04:56:01;;;;;;;;;;;8.20;99.90;;;;;;5069809;28;19917;-78
2022/02/16 04:58:27;;;;;;;;;;;8.30;99.90;;;;;;5075941;28;19928;-78
2022/02/16 05:00:53;;;;;;;;;;;8.30;99.90;;;;;;5076102;28;19916;-81
2022/02/16 05:03:18;;;;;;;;;;;8.30;99.90;;;;;;5077304;28;19923;-78
2022/02/16 05:05:44;;;;;;;;;;;8.30;99.90;;;;;;5052381;28;19920;-79
2022/02/16 05:08:09;;;;;;;;;;;8.30;99.90;;;;;;5068411;28;20227;-79
2022/02/16 05:10:35;;;;;;;;;;;8.30;99.90;;;;;;5072451;28;20414;-77
2022/02/16 05:13:00;;;;;;;;;;;8.30;99.90;;;;;;5074760;28;20330;-78
2022/02/16 05:15:26;;;;;;;;;;;8.30;99.90;;;;;;5077104;28;19919;-78
2022/02/16 05:17:52;;;;;;;;;;;8.30;99.90;;;;;;5074475;28;19912;-78
2022/02/16 05:20:17;;;;;;;;;;;8.30;99.90;;;;;;5076875;28;19920;-78
2022/02/16 05:22:43;;;;;;;;;;;8.30;99.90;;;;;;5073247;28;19913;-79
2022/02/16 05:25:09;;;;;;;;;;;8.30;99.90;;;;;;5077373;28;19912;-78
2022/02/16 05:27:35;;;;;;;;;;;8.30;99.90;;;;;;5075867;28;20200;-77
2022/02/16 05:30:00;;;;;;;;;;;8.30;99.90;;;;;;5067566;28;19916;-78
2022/02/16 05:32:26;;;;;;;;;;;8.30;99.90;;;;;;5068014;28;19975;-78
2022/02/16 05:34:51;;;;;;;;;;;8.40;99.90;;;;;;5072782;28;19917;-79
2022/02/16 05:37:17;;;;;;;;;;;8.40;99.90;;;;;;5073043;28;19917;-79
2022/02/16 05:39:42;;;;;;;;;;;8.40;99.90;;;;;;5073371;28;19924;-79
2022/02/16 05:42:08;;;;;;;;;;;8.40;99.90;;;;;;5076697;28;20211;-78
2022/02/16 05:44:34;;;;;;;;;;;8.50;99.90;;;;;;5077218;28;19913;-79
2022/02/16 05:47:00;;;;;;;;;;;8.50;99.90;;;;;;5077742;28;20025;-79
2022/02/16 05:49:26;;;;;;;;;;;8.50;99.90;;;;;;5062075;28;20263;-79
2022/02/16 05:51:51;;;;;;;;;;;8.50;99.90;;;;;;5069346;28;19958;-79
2022/02/16 05:54:17;;;;;;;;;;;8.50;99.90;;;;;;5076337;28;19926;-80
2022/02/16 05:56:42;;;;;;;;;;;8.60;99.90;;;;;;5082426;28;19919;-78
2022/02/16 05:59:11;;;;;;;;;;;8.60;99.90;;;;;;5094815;28;20370;-79
2022/02/16 06:01:39;;;;;;;;;;;8.60;99.90;;;;;;5117981;28;19964;-79
2022/02/16 06:04:05;;;;;;;;;;;8.60;99.90;;;;;;5116288;28;19912;-79
2022/02/16 06:06:30;;;;;;;;;;;8.60;99.90;;;;;;5117836;28;19923;-79
2022/02/16 06:08:56;;;;;;;;;;;8.60;99.90;;;;;;5117539;28;19912;-79
2022/02/16 06:11:21;;;;;;;;;;;8.70;99.90;;;;;;5097510;28;19915;-78
2022/02/16 06:13:47;;;;;;;;;;;8.70;99.90;;;;;;5118295;28;19961;-77
2022/02/16 06:16:12;;;;;;;;;;;8.70;99.90;;;;;;5117580;28;20206;-78
2022/02/16 06:18:38;;;;;;;;;;;8.70;99.90;;;;;;5101431;28;19912;-77
2022/02/16 06:21:03;;;;;;;;;;;8.70;99.90;;;;;;5099630;28;19912;-77
2022/02/16 06:23:29;;;;;;;;;;;8.80;99.90;;;;;;5096522;28;19920;-78
2022/02/16 06:25:55;;;;;;;;;;;8.80;99.90;;;;;;5117382;28;19916;-77
2022/02/16 06:28:20;;;;;;;;;;;8.80;99.90;;;;;;5117436;28;19908;-79
2022/02/16 06:30:46;;;;;;;;;;;8.90;99.90;;;;;;5117650;28;19908;-79
2022/02/16 06:33:12;;;;;;;;;;;8.90;99.90;;;;;;5098786;28;19947;-78
2022/02/16 06:35:37;;;;;;;;;;;8.90;99.90;;;;;;5117757;28;19912;-78
2022/02/16 06:38:06;;;;;;;;;;;8.90;99.90;;;;;;5117315;28;19907;-79
2022/02/16 06:40:34;;;;;;;;;;;9.00;99.90;;;;;;5141665;22;20253;-78
2022/02/16 06:43:00;;;;;;;;;;;9.00;99.90;;;;;;5138703;27;19911;-78
2022/02/16 06:45:25;;;;;;;;;;;8.90;99.90;;;;;;5118986;27;20000;-78
2022/02/16 06:47:51;;;;;;;;;;;9.00;99.90;;;;;;5099375;28;20321;-78
2022/02/16 06:50:16;;;;;;;;;;;9.00;99.90;;;;;;5081840;28;19912;-78
2022/02/16 06:52:42;;;;;;;;;;;9.00;99.90;;;;;;5097611;28;20272;-79
2022/02/16 06:55:08;;;;;;;;;;;9.00;99.90;;;;;;5117048;28;20253;-78
2022/02/16 06:57:33;;;;;;;;;;;9.00;99.90;;;;;;5117120;28;20021;-77
2022/02/16 06:59:59;;;;;;;;;;;9.00;99.90;;;;;;5101646;28;20291;-78
2022/02/16 07:02:25;;;;;;;;;;;9.00;99.90;;;;;;5084006;28;19912;-80
2022/02/16 07:04:51;;;;;;;;;;;9.10;99.90;;;;;;5078843;28;19912;-78
2022/02/16 07:07:16;;;;;;;;;;;9.10;99.90;;;;;;5108922;28;19908;-80
2022/02/16 07:09:42;;;;;;;;;;;9.10;99.90;;;;;;5116914;28;19916;-82
2022/02/16 07:12:08;;;;;;;;;;;9.10;99.90;;;;;;5099060;28;20195;-80
2022/02/16 07:14:34;;;;;;;;;;;9.10;99.90;;;;;;5117074;28;19912;-81
2022/02/16 07:16:59;;;;;;;;;;;9.10;99.90;;;;;;5099061;28;20291;-78
2022/02/16 07:19:26;;;;;;;;;;;9.10;99.90;;;;;;5115098;28;19965;-80
2022/02/16 07:21:52;;;;;;;;;;;9.10;99.90;;;;;;5110800;28;20010;-80
2022/02/16 07:24:17;;;;;;;;;;;9.20;99.90;;;;;;5078696;28;19965;-83
2022/02/16 07:26:43;;;;;;;;;;;9.20;99.90;;;;;;5096770;28;19908;-83
2022/02/16 07:29:08;;;;;;;;;;;9.20;99.90;;;;;;5103436;28;19945;-81
2022/02/16 07:31:34;;;;;;;;;;;9.20;99.90;;;;;;5121741;27;19934;-81
2022/02/16 07:33:59;;;;;;;;;;;9.20;99.90;;;;;;5115298;27;20329;-81
2022/02/16 07:36:25;;;;;;;;;;;9.30;99.90;;;;;;5098817;28;20370;-79
2022/02/16 07:38:50;;;;;;;;;;;9.30;99.90;;;;;;5089877;28;19920;-80
2022/02/16 07:41:16;;;;;;;;;;;9.30;99.90;;;;;;5083121;28;20300;-78
2022/02/16 07:43:41;;;;;;;;;;;9.30;99.90;;;;;;5083711;28;19917;-79
2022/02/16 07:46:08;;;;;;;;;;;9.40;99.90;;;;;;5105189;28;19952;-79
2022/02/16 07:48:34;;;;;;;;;;;9.40;99.90;;;;;;5081502;28;19952;-80
2022/02/16 07:51:00;;;;;;;;;;;9.40;99.90;;;;;;5087428;28;19991;-79
2022/02/16 07:53:25;;;;;;;;;;;9.50;99.90;;;;;;5089068;28;20039;-80
2022/02/16 07:55:51;;;;;;;;;;;9.50;99.90;;;;;;5090474;28;19912;-78
2022/02/16 07:58:17;;;;;;;;;;;9.60;99.90;;;;;;5083415;28;19918;-79
2022/02/16 08:00:43;;;;;;;;;;;9.60;99.90;;;;;;5087046;28;19912;-81
2022/02/16 08:03:09;;;;;;;;;;;9.60;99.90;;;;;;5080760;28;20383;-81
2022/02/16 08:05:35;;;;;;;;;;;9.70;99.90;;;;;;5086420;28;19961;-80
2022/02/16 08:08:00;;;;;;;;;;;9.70;99.90;;;;;;5068662;28;19917;-80
2022/02/16 08:10:26;;;;;;;;;;;9.80;99.90;;;;;;5089675;28;19917;-80
2022/02/16 08:12:56;;;;;;;;;;;9.90;99.90;;;;;;5090779;28;19951;-80
2022/02/16 08:15:22;;;;;;;;;;;9.90;99.90;;;;;;5090599;28;19916;-80
2022/02/16 08:17:47;;;;;;;;;;;10.00;99.90;;;;;;5085531;28;19961;-82
2022/02/16 08:20:13;;;;;;;;;;;10.00;99.90;;;;;;5089200;28;19919;-80
2022/02/16 08:22:38;;;;;;;;;;;10.00;99.90;;;;;;5087350;28;20002;-81
2022/02/16 08:25:05;;;;;;;;;;;10.10;99.90;;;;;;5079163;28;20062;-82
2022/02/16 08:27:30;;;;;;;;;;;10.10;99.90;;;;;;5087098;28;19912;-81
2022/02/16 08:29:56;;;;;;;;;;;10.20;99.90;;;;;;5081238;28;19937;-80
2022/02/16 08:32:21;;;;;;;;;;;10.20;99.90;;;;;;5083667;28;19956;-82
2022/02/16 08:34:47;;;;;;;;;;;10.20;99.90;;;;;;5094110;28;19916;-82
2022/02/16 08:37:12;;;;;;;;;;;10.20;99.90;;;;;;5086940;28;20325;-79
2022/02/16 08:39:38;;;;;;;;;;;10.30;99.90;;;;;;5096865;28;20398;-79
2022/02/16 08:42:04;;;;;;;;;;;10.30;99.90;;;;;;5088047;28;20311;-78
2022/02/16 08:44:30;;;;;;;;;;;10.30;99.90;;;;;;5085163;28;19995;-82
2022/02/16 08:46:55;;;;;;;;;;;10.40;99.90;;;;;;5078276;28;19936;-79
2022/02/16 08:49:21;;;;;;;;;;;10.40;99.90;;;;;;5089211;28;20002;-78
2022/02/16 08:51:47;;;;;;;;;;;10.40;99.90;;;;;;5094206;28;20235;-83
2022/02/16 08:54:12;;;;;;;;;;;10.50;99.90;;;;;;5086447;28;20329;-83
2022/02/16 08:56:38;;;;;;;;;;;10.60;99.90;;;;;;5098409;28;20294;-83
2022/02/16 08:59:04;;;;;;;;;;;10.60;99.90;;;;;;5087963;28;20350;-81
2022/02/16 09:01:33;;;;;;;;;;;10.70;99.90;;;;;;5104867;28;19916;-76
2022/02/16 09:03:59;;;;;;;;;;;10.80;99.90;;;;;;5104918;28;19920;-81
2022/02/16 09:06:25;;;;;;;;;;;10.90;99.90;;;;;;5103129;28;19912;-79
2022/02/16 09:08:51;;;;;;;;;;;10.90;99.90;;;;;;5088295;28;21522;-81
2022/02/16 09:11:17;;;;;;;;;;;11.00;99.90;;;;;;5110379;28;19923;-79
2022/02/16 09:13:42;;;;;;;;;;;11.00;99.90;;;;;;5105818;28;19920;-79
2022/02/16 09:16:08;;;;;;;;;;;11.10;99.90;;;;;;5103828;28;19957;-80
2022/02/16 09:18:33;;;;;;;;;;;11.10;99.90;;;;;;5102021;28;19939;-80
2022/02/16 09:21:05;;;;;;;;;;;11.20;99.90;;;;;;5086700;28;19956;-78
2022/02/16 09:23:31;;;;;;;;;;;11.30;99.90;;;;;;5085707;28;20412;-80
2022/02/16 09:25:56;;;;;;;;;;;11.40;99.90;;;;;;5104324;28;20310;-79
2022/02/16 09:28:22;;;;;;;;;;;11.50;99.90;;;;;;5103433;28;20037;-78
2022/02/16 09:30:47;;;;;;;;;;;11.60;99.90;;;;;;5107333;28;19943;-82
2022/02/16 09:33:13;;;;;;;;;;;11.60;99.90;;;;;;5086526;28;19995;-79
2022/02/16 09:35:38;;;;;;;;;;;11.70;99.90;;;;;;5100573;28;19989;-86
2022/02/16 09:38:04;;;;;;;;;;;11.90;99.90;;;;;;5089077;28;19947;-82
2022/02/16 09:40:30;;;;;;;;;;;12.00;99.90;;;;;;5088390;28;20336;-80
2022/02/16 09:42:59;;;;;;;;;;;12.00;99.90;;;;;;5106658;28;19912;-82
2022/02/16 09:45:27;;;;;;;;;;;12.10;99.90;;;;;;5115838;28;19912;-88
2022/02/16 09:47:53;;;;;;;;;;;12.20;99.90;;;;;;5090008;28;19919;-86
2022/02/16 09:50:18;;;;;;;;;;;12.30;99.90;;;;;;5112349;27;19912;-79
2022/02/16 09:52:44;;;;;;;;;;;12.30;99.90;;;;;;5112090;27;19935;-80
2022/02/16 09:55:10;;;;;;;;;;;12.30;99.90;;;;;;5093787;28;20252;-89
2022/02/16 09:57:36;;;;;;;;;;;12.30;99.90;;;;;;5115576;27;19961;-78
2022/02/16 10:00:02;;;;;;;;;;;12.40;99.90;;;;;;5095059;28;19924;-79
2022/02/16 10:02:37;;;;;;;;;;;12.40;99.90;;;;;;5111964;28;20311;-82
2022/02/16 10:05:04;;;;;;;;;;;12.50;99.90;;;;;;5105466;28;20257;-83
2022/02/16 10:07:30;;;;;;;;;;;12.50;99.90;;;;;;5106038;28;20251;-80
2022/02/16 10:10:16;;;;;;;;;;;12.60;99.90;;;;;;5092056;28;20007;-78
2022/02/16 10:12:44;;;;;;;;;;;12.50;99.90;;;;;;5113852;28;19923;-79
2022/02/16 10:15:11;;;;;;;;;;;12.50;99.90;;;;;;5100935;28;19919;-82
2022/02/16 10:17:36;;;;;;;;;;;12.40;99.90;;;;;;5090782;28;19922;-83
2022/02/16 10:20:04;;;;;;;;;;;12.40;99.90;;;;;;5090382;27;19924;-78
2022/02/16 10:22:37;;;;;;;;;;;12.30;99.90;;;;;;5099838;28;19915;-81
2022/02/16 10:25:12;;;;;;;;;;;12.30;99.90;;;;;;5105896;28;19977;-81
2022/02/16 10:27:38;;;;;;;;;;;12.30;99.90;;;;;;5101353;28;19916;-79
2022/02/16 10:30:10;;;;;;;;;;;12.20;99.90;;;;;;5091333;28;20308;-79
2022/02/16 10:32:36;;;;;;;;;;;12.20;99.90;;;;;;5098101;28;19976;-78
2022/02/16 10:35:02;;;;;;;;;;;12.10;99.90;;;;;;5101524;28;19916;-78
2022/02/16 10:37:38;;;;;;;;;;;12.00;99.90;;;;;;5089610;28;19908;-83
2022/02/16 10:40:11;;;;;;;;;;;11.90;99.90;;;;;;5102820;27;19931;-80
2022/02/16 10:42:51;;;;;;;;;;;11.80;99.90;;;;;;5094454;28;19981;-82
2022/02/16 10:45:17;;;;;;;;;;;11.80;99.90;;;;;;5086674;28;20616;-79
2022/02/16 10:48:12;;;;;;;;;;;11.70;99.90;;;;;;5097529;28;19916;-80
2022/02/16 10:50:44;;;;;;;;;;;11.70;99.90;;;;;;5048431;28;20377;-80
2022/02/16 10:53:09;;;;;;;;;;;11.70;99.90;;;;;;5037144;28;19915;-80
2022/02/16 10:55:39;;;;;;;;;;;11.70;99.90;;;;;;5046924;28;20000;-83
2022/02/16 10:58:06;;;;;;;;;;;11.60;99.90;;;;;;5045346;28;19960;-81
2022/02/16 11:00:35;;;;;;;;;;;11.70;99.90;;;;;;5039519;28;19940;-81
2022/02/16 11:03:01;;;;;;;;;;;11.70;99.90;;;;;;5041582;28;19921;-81
2022/02/16 11:05:27;;;;;;;;;;;11.60;99.90;;;;;;5034735;28;19916;-79
2022/02/16 11:07:53;;;;;;;;;;;11.60;99.90;;;;;;5032084;28;20260;-81
2022/02/16 11:10:20;;;;;;;;;;;11.60;99.90;;;;;;5024776;28;19937;-80
2022/02/16 11:12:46;;;;;;;;;;;11.60;99.90;;;;;;5029640;28;20038;-79
2022/02/16 11:15:13;;;;;;;;;;;11.60;99.90;;;;;;5038787;28;19925;-80
2022/02/16 11:17:39;;;;;;;;;;;11.60;99.90;;;;;;5022050;28;19928;-78
2022/02/16 11:20:20;;;;;;;;;;;11.60;99.90;;;;;;5040457;28;21526;-79
2022/02/16 11:23:00;;;;;;;;;;;11.60;99.90;;;;;;5041135;28;19944;-79
2022/02/16 11:25:26;;;;;;;;;;;11.60;99.90;;;;;;5045539;28;19920;-79
2022/02/16 11:27:52;;;;;;;;;;;11.60;99.90;;;;;;5094044;28;19920;-80
2022/02/16 11:30:34;;;;;;;;;;;11.60;99.90;;;;;;5104941;28;20306;-80
2022/02/16 11:33:12;;;;;;;;;;;11.60;99.90;;;;;;5092183;28;19915;-79
2022/02/16 11:35:44;;;;;;;;;;;11.50;99.90;;;;;;5095023;28;20287;-80
2022/02/16 11:38:15;;;;;;;;;;;11.50;99.90;;;;;;5107040;28;19926;-78
2022/02/16 11:40:42;;;;;;;;;;;11.60;99.90;;;;;;5105617;28;19969;-79
2022/02/16 11:43:10;;;;;;;;;;;11.60;99.90;;;;;;5107461;27;20011;-79
2022/02/16 11:45:45;;;;;;;;;;;11.50;99.90;;;;;;5106777;28;19916;-82
2022/02/16 11:48:12;;;;;;;;;;;11.50;99.90;;;;;;5086031;28;19973;-80
2022/02/16 11:50:39;;;;;;;;;;;11.50;99.90;;;;;;5093952;28;19916;-81
2022/02/16 11:53:09;;;;;;;;;;;11.60;99.90;;;;;;5098741;27;19949;-80
2022/02/16 11:55:42;;;;;;;;;;;11.60;99.90;;;;;;5091729;28;19912;-79
2022/02/16 11:58:21;;;;;;;;;;;11.60;99.90;;;;;;5097642;28;20337;-79
2022/02/16 12:00:46;;;;;;;;;;;11.60;99.90;;;;;;5105648;28;19920;-81
2022/02/16 12:03:14;;;;;;;;;;;11.70;99.90;;;;;;5103617;28;19912;-80
2022/02/16 12:05:41;;;;;;;;;;;11.80;99.90;;;;;;5100561;28;20349;-79
2022/02/16 12:08:13;;;;;;;;;;;11.80;99.90;;;;;;5105440;28;19916;-80
2022/02/16 12:10:39;;;;;;;;;;;11.80;99.90;;;;;;5087954;28;19969;-79
2022/02/16 12:13:05;;;;;;;;;;;11.80;99.90;;;;;;5088315;28;19916;-83
2022/02/16 12:15:34;;;;;;;;;;;11.90;99.90;;;;;;5105011;28;19928;-79
2022/02/16 12:18:00;;;;;;;;;;;11.80;99.90;;;;;;5089823;28;19919;-81
2022/02/16 12:20:26;;;;;;;;;;;11.80;99.90;;;;;;5088013;28;19919;-79
2022/02/16 12:22:52;;;;;;;;;;;11.70;99.90;;;;;;5089529;28;20341;-82
2022/02/16 12:25:18;;;;;;;;;;;11.70;99.90;;;;;;5086301;28;19912;-79
2022/02/16 12:27:44;;;;;;;;;;;11.70;99.90;;;;;;5104787;28;19912;-81
2022/02/16 12:30:10;;;;;;;;;;;11.70;99.90;;;;;;5086405;28;19923;-81
2022/02/16 12:32:37;;;;;;;;;;;11.60;99.90;;;;;;5088627;28;19977;-82
2022/02/16 12:35:04;;;;;;;;;;;11.60;99.90;;;;;;5085228;28;19930;-79
2022/02/16 12:37:29;;;;;;;;;;;11.60;99.90;;;;;;5086755;28;19933;-81
2022/02/16 12:39:57;;;;;;;;;;;11.60;99.90;;;;;;5104525;28;19928;-80
2022/02/16 12:42:33;;;;;;;;;;;11.50;99.90;;;;;;5103743;28;19919;-79
2022/02/16 12:44:58;;;;;;;;;;;11.60;99.90;;;;;;5102353;28;19912;-80
2022/02/16 12:47:24;;;;;;;;;;;11.50;99.90;;;;;;5104366;28;19919;-80
2022/02/16 12:49:50;;;;;;;;;;;11.60;99.90;;;;;;5086500;28;19916;-81
2022/02/16 12:52:16;;;;;;;;;;;11.60;99.90;;;;;;5103681;28;19919;-80
2022/02/16 12:54:41;;;;;;;;;;;11.60;99.90;;;;;;5087557;28;19920;-80
2022/02/16 12:57:08;;;;;;;;;;;11.60;99.90;;;;;;5106371;28;19927;-84
2022/02/16 13:02:26;;;;;;;;;;;11.60;99.90;;;;;;5103277;28;19989;-80
2022/02/16 13:04:55;;;;;;;;;;;11.60;99.90;;;;;;5094857;28;20030;-80
2022/02/16 13:07:22;;;;;;;;;;;11.60;99.90;;;;;;5100626;28;19923;-80
2022/02/16 13:09:47;;;;;;;;;;;11.60;99.90;;;;;;5100724;28;19916;-81
2022/02/16 13:12:31;;;;;;;;;;;11.60;99.90;;;;;;5104457;28;19968;-79
2022/02/16 13:15:03;;;;;;;;;;;11.60;99.90;;;;;;5101905;28;19908;-79
2022/02/16 13:17:29;;;;;;;;;;;11.70;99.90;;;;;;5098486;28;19928;-81
2022/02/16 13:19:55;;;;;;;;;;;11.70;99.90;;;;;;5090396;28;19951;-79
2022/02/16 13:22:22;;;;;;;;;;;11.70;99.90;;;;;;5090304;28;20264;-81
2022/02/16 13:24:50;;;;;;;;;;;11.70;99.90;;;;;;5094882;28;19994;-80
2022/02/16 13:27:16;;;;;;;;;;;11.60;99.90;;;;;;5082606;28;19919;-81
2022/02/16 13:29:41;;;;;;;;;;;11.60;99.90;;;;;;5093692;28;19920;-80
2022/02/16 13:32:07;;;;;;;;;;;11.60;99.90;;;;;;5101816;28;19916;-79
2022/02/16 13:34:51;;;;;;;;;;;11.60;99.90;;;;;;5087389;28;19916;-82
2022/02/16 13:37:16;;;;;;;;;;;11.60;99.90;;;;;;5103739;28;19992;-79
2022/02/16 13:39:42;;;;;;;;;;;11.70;99.90;;;;;;5099737;28;20018;-80
2022/02/16 13:42:13;;;;;;;;;;;11.70;99.90;;;;;;5105399;27;19916;-81
2022/02/16 13:44:39;;;;;;;;;;;11.70;99.90;;;;;;5103905;28;20436;-79
2022/02/16 13:47:13;;;;;;;;;;;11.70;99.90;;;;;;5087913;28;19915;-79
2022/02/16 13:49:47;;;;;;;;;;;11.70;99.90;;;;;;5067440;28;20299;-80
2022/02/16 13:52:13;;;;;;;;;;;11.70;99.90;;;;;;5103214;28;19920;-81
2022/02/16 13:54:40;;;;;;;;;;;11.70;99.90;;;;;;5104677;28;20240;-80
2022/02/16 13:57:07;;;;;;;;;;;11.70;99.90;;;;;;5105132;28;19916;-79
2022/02/16 13:59:34;;;;;;;;;;;11.70;99.90;;;;;;5097695;28;19920;-80
2022/02/16 14:02:03;;;;;;;;;;;11.80;99.90;;;;;;5102637;28;20255;-80
2022/02/16 14:04:33;;;;;;;;;;;11.70;99.90;;;;;;5103501;28;20211;-80
2022/02/16 14:07:06;;;;;;;;;;;11.70;99.90;;;;;;5097433;28;19916;-80
2022/02/16 14:09:32;;;;;;;;;;;11.70;99.90;;;;;;5101023;28;19956;-78
2022/02/16 14:11:58;;;;;;;;;;;11.70;99.90;;;;;;5078844;28;19915;-79
2022/02/16 14:14:23;;;;;;;;;;;11.70;99.90;;;;;;5086394;28;20278;-79
2022/02/16 14:16:49;;;;;;;;;;;11.60;99.90;;;;;;5103877;28;19973;-79
2022/02/16 14:19:23;;;;;;;;;;;11.60;99.90;;;;;;5103284;28;19922;-80
2022/02/16 14:21:50;;;;;;;;;;;11.60;99.90;;;;;;5104723;28;19916;-80
2022/02/16 14:24:15;;;;;;;;;;;11.50;99.90;;;;;;5086473;28;19912;-79
2022/02/16 14:26:41;;;;;;;;;;;11.50;99.90;;;;;;5106789;27;19930;-78
2022/02/16 14:29:07;;;;;;;;;;;11.40;99.90;;;;;;5083790;28;19916;-80
2022/02/16 14:31:32;;;;;;;;;;;11.40;99.90;;;;;;5103533;28;19916;-79